Terminal Aerodrome Forecast
Issued by NWS Amarillo, TX

Home | Current Version | Previous Version | Text Only | Print | Product List | Glossary On
Versions: 1 2 3 4 5 6 7 8 9 10 11 12 13 14 15 16 17 18 19 20 21 22 23
000
FTUS44 KAMA 291100
TAFDHT
TAF
KDHT 291138Z 2912/3012 34009KT P6SM BKN080
     FM291800 03013KT P6SM SCT070
     FM300000 03013KT P6SM TSRA BKN050CB
     FM300300 36017KT P6SM BKN050
     FM300600 36014KT P6SM BKN010=

USA.gov is the U.S. government's official web portal to all federal, state and local government web resources and services.